createdAt,value
2023-03-12T00:00:39.212Z,4.30
2023-03-12T00:03:41.176Z,4.70
2023-03-12T00:06:42.851Z,3.95
2023-03-12T00:09:45.782Z,4.20
2023-03-12T00:12:47.418Z,4.28
2023-03-12T00:15:49.132Z,4.07
2023-03-12T00:18:52.690Z,4.18
2023-03-12T00:21:54.374Z,4.90
2023-03-12T00:24:57.324Z,4.28
2023-03-12T00:27:58.998Z,4.18
2023-03-12T00:31:01.761Z,4.50
2023-03-12T00:34:03.452Z,4.53
2023-03-12T00:37:05.343Z,4.82
2023-03-12T00:40:09.642Z,7.93
2023-03-12T00:43:11.316Z,4.68
2023-03-12T00:46:13.861Z,5.65
2023-03-12T00:49:15.511Z,4.45
2023-03-12T00:52:17.217Z,4.72
2023-03-12T00:55:18.887Z,5.75
2023-03-12T00:58:20.631Z,4.93
2023-03-12T01:01:22.536Z,6.35
2023-03-12T01:04:24.446Z,4.60
2023-03-12T01:07:26.190Z,5.63
2023-03-12T01:10:28.060Z,5.40
2023-03-12T01:13:30.530Z,4.88
2023-03-12T01:16:32.517Z,5.90
2023-03-12T01:19:34.196Z,4.95
2023-03-12T01:22:36.557Z,4.75
2023-03-12T01:25:38.334Z,5.82
2023-03-12T01:28:39.985Z,5.85
2023-03-12T01:31:41.670Z,5.72
2023-03-12T01:34:44.552Z,7.15
2023-03-12T01:37:46.388Z,5.88
2023-03-12T01:40:48.083Z,5.45
2023-03-12T01:43:49.898Z,5.65
2023-03-12T01:46:51.737Z,5.03
2023-03-12T01:49:57.030Z,6.88
2023-03-12T01:52:59.492Z,5.47
2023-03-12T01:56:02.220Z,5.13
2023-03-12T01:59:23.208Z,6.10
2023-03-12T02:02:28.723Z,6.50
2023-03-12T02:05:48.479Z,5.72
2023-03-12T02:11:52.559Z,6.55
2023-03-12T02:14:54.960Z,6.85
2023-03-12T02:17:56.693Z,5.15
2023-03-12T02:21:24.098Z,7.80
2023-03-12T02:24:30.827Z,6.95
2023-03-12T02:27:34.659Z,7.38
2023-03-12T02:30:37.273Z,6.95
2023-03-12T02:33:39.762Z,7.30
2023-03-12T02:36:41.563Z,7.97
2023-03-12T02:39:47.656Z,6.35
2023-03-12T02:42:49.470Z,6.50
2023-03-12T02:45:51.505Z,7.35
2023-03-12T02:48:53.972Z,7.15
2023-03-12T02:51:56.360Z,6.85
2023-03-12T02:54:58.188Z,6.38
2023-03-12T02:57:59.833Z,5.82
2023-03-12T03:01:01.986Z,6.25
2023-03-12T03:04:06.386Z,6.30
2023-03-12T03:07:08.063Z,6.05
2023-03-12T03:10:10.489Z,7.15
2023-03-12T03:13:12.654Z,6.30
2023-03-12T03:16:14.400Z,6.03
2023-03-12T03:19:16.408Z,6.53
2023-03-12T03:22:19.671Z,5.88
2023-03-12T03:25:23.213Z,6.32
2023-03-12T03:28:26.916Z,6.28
2023-03-12T03:31:28.951Z,6.68
2023-03-12T03:34:31.191Z,5.68
2023-03-12T03:37:32.788Z,7.55
2023-03-12T03:40:34.482Z,5.47
2023-03-12T03:43:36.222Z,5.95
2023-03-12T03:46:38.189Z,6.50
2023-03-12T03:49:42.886Z,5.82
2023-03-12T03:52:45.995Z,6.72
2023-03-12T03:55:48.118Z,6.55
2023-03-12T03:58:52.306Z,6.32
2023-03-12T04:01:56.118Z,6.00
2023-03-12T04:04:59.121Z,5.18
2023-03-12T04:08:05.388Z,6.30
2023-03-12T04:11:14.854Z,5.40
2023-03-12T04:14:17.103Z,5.47
2023-03-12T04:17:20.262Z,5.15
2023-03-12T04:20:22.372Z,5.82
2023-03-12T04:23:24.139Z,4.82
2023-03-12T04:26:26.076Z,5.30
2023-03-12T04:29:28.837Z,5.03
2023-03-12T04:32:31.074Z,5.50
2023-03-12T04:35:32.930Z,6.18
2023-03-12T04:38:34.895Z,5.25
2023-03-12T04:41:36.934Z,5.85
2023-03-12T04:47:45.321Z,5.00
2023-03-12T04:50:47.312Z,4.75
2023-03-12T04:53:48.925Z,5.57
2023-03-12T04:56:51.215Z,5.30
2023-03-12T04:59:55.590Z,5.20
2023-03-12T05:02:57.337Z,5.53
2023-03-12T05:05:59.239Z,4.82
2023-03-12T05:09:01.008Z,4.70
2023-03-12T05:12:02.748Z,4.95
2023-03-12T05:15:04.818Z,4.47
2023-03-12T05:18:06.422Z,5.30
2023-03-12T05:21:12.167Z,4.95
2023-03-12T05:24:13.936Z,5.37
2023-03-12T05:27:15.768Z,4.97
2023-03-12T05:30:17.634Z,5.68
2023-03-12T05:33:19.474Z,4.72
2023-03-12T05:36:21.768Z,5.63
2023-03-12T05:39:24.588Z,6.70
2023-03-12T05:42:26.339Z,4.70
2023-03-12T05:45:28.429Z,5.00
2023-03-12T05:48:31.845Z,6.03
2023-03-12T05:51:33.849Z,4.95
2023-03-12T05:54:35.757Z,5.40
2023-03-12T05:57:39.104Z,5.63
2023-03-12T06:00:41.735Z,5.45
2023-03-12T06:03:45.046Z,6.32
2023-03-12T06:06:47.281Z,5.80
2023-03-12T06:09:49.159Z,6.22
2023-03-12T06:12:51.678Z,6.40
2023-03-12T06:15:53.318Z,6.20
2023-03-12T06:19:01.124Z,5.22
2023-03-12T06:22:04.215Z,5.38
2023-03-12T06:25:06.515Z,5.60
2023-03-12T06:28:09.152Z,6.45
2023-03-12T06:31:10.927Z,6.97
2023-03-12T06:34:12.694Z,5.70
2023-03-12T06:37:14.329Z,6.20
2023-03-12T06:40:16.049Z,5.55
2023-03-12T06:43:17.591Z,5.80
2023-03-12T06:46:21.961Z,5.50
2023-03-12T06:49:24.136Z,5.03
2023-03-12T06:52:25.853Z,5.30
2023-03-12T06:55:27.910Z,6.60
2023-03-12T06:58:30.066Z,4.63
2023-03-12T07:01:31.753Z,5.47
2023-03-12T07:04:33.755Z,5.00
2023-03-12T07:07:35.334Z,4.72
2023-03-12T07:10:37.106Z,5.03
2023-03-12T07:13:39.007Z,5.88
2023-03-12T07:16:40.612Z,5.90
2023-03-12T07:19:42.291Z,5.53
2023-03-12T07:22:43.884Z,4.97
2023-03-12T07:25:45.978Z,5.32
2023-03-12T07:28:47.791Z,4.72
2023-03-12T07:31:49.349Z,5.03
2023-03-12T07:34:50.904Z,4.88
2023-03-12T07:37:52.520Z,4.88
2023-03-12T07:40:56.137Z,5.22
2023-03-12T07:43:57.876Z,5.50
2023-03-12T07:47:09.716Z,4.43
2023-03-12T07:50:19.310Z,4.70
2023-03-12T07:53:21.034Z,4.60
2023-03-12T07:56:23.196Z,3.85
2023-03-12T07:59:26.905Z,5.55
2023-03-12T08:02:28.651Z,4.30
2023-03-12T08:05:30.402Z,4.90
2023-03-12T08:08:32.362Z,3.90
2023-03-12T08:11:34.468Z,4.40
2023-03-12T08:14:36.187Z,4.75
2023-03-12T08:17:38.015Z,9.32
2023-03-12T08:20:39.638Z,5.22
2023-03-12T08:23:41.260Z,4.95
2023-03-12T08:26:42.884Z,4.90
2023-03-12T08:29:44.580Z,4.95
2023-03-12T08:32:46.608Z,4.70
2023-03-12T08:35:50.508Z,5.97
2023-03-12T08:38:52.207Z,4.40
2023-03-12T08:41:55.509Z,4.70
2023-03-12T08:44:57.194Z,4.70
2023-03-12T08:47:58.763Z,4.47
2023-03-12T08:51:04.203Z,4.32
2023-03-12T08:54:05.993Z,4.90
2023-03-12T08:57:07.591Z,4.70
2023-03-12T09:00:14.946Z,5.18
2023-03-12T09:03:17.103Z,6.10
2023-03-12T09:06:19.504Z,4.95
2023-03-12T09:09:21.131Z,4.95
2023-03-12T09:12:23.500Z,6.05
2023-03-12T09:15:25.255Z,5.43
2023-03-12T09:18:27.446Z,5.82
2023-03-12T09:21:29.297Z,5.95
2023-03-12T09:24:31.018Z,5.05
2023-03-12T09:27:37.304Z,4.88
2023-03-12T09:30:39.111Z,5.35
2023-03-12T09:33:40.720Z,6.07
2023-03-12T09:36:42.391Z,5.65
2023-03-12T09:39:43.967Z,5.85
2023-03-12T09:43:17.990Z,6.53
2023-03-12T09:46:33.346Z,6.95
2023-03-12T09:49:45.191Z,7.72
2023-03-12T09:52:57.046Z,6.93
2023-03-12T09:56:00.738Z,5.05
2023-03-12T09:59:02.937Z,5.25
2023-03-12T10:02:29.797Z,5.03
2023-03-12T10:05:34.421Z,6.97
2023-03-12T10:08:56.768Z,5.40
2023-03-12T10:12:21.180Z,6.70
2023-03-12T10:15:27.903Z,5.45
2023-03-12T10:18:48.966Z,5.63
2023-03-12T10:22:25.504Z,6.15
2023-03-12T10:25:39.366Z,4.78
2023-03-12T10:29:04.982Z,5.20
2023-03-12T10:32:12.266Z,6.60
2023-03-12T10:35:21.867Z,5.60
2023-03-12T10:38:29.643Z,5.15
2023-03-12T10:41:34.786Z,5.43
2023-03-12T10:44:36.580Z,5.47
2023-03-12T10:47:42.996Z,5.63
2023-03-12T10:51:02.139Z,5.82
2023-03-12T10:54:22.468Z,4.70
2023-03-12T10:57:40.600Z,5.35
2023-03-12T11:00:58.690Z,8.18
2023-03-12T11:04:19.767Z,5.55
2023-03-12T11:07:27.776Z,6.18
2023-03-12T11:10:32.473Z,7.15
2023-03-12T11:13:37.982Z,6.57
2023-03-12T11:16:40.008Z,6.20
2023-03-12T11:19:41.641Z,5.38
2023-03-12T11:22:43.482Z,5.93
2023-03-12T11:25:52.090Z,8.15
2023-03-12T11:29:04.458Z,7.28
2023-03-12T11:32:12.257Z,6.38
2023-03-12T11:35:18.267Z,6.28
2023-03-12T11:38:25.386Z,6.03
2023-03-12T11:41:54.644Z,7.72
2023-03-12T11:45:06.041Z,6.75
2023-03-12T11:48:31.062Z,7.32
2023-03-12T11:51:49.826Z,5.82
2023-03-12T11:54:51.367Z,5.63
2023-03-12T11:58:12.656Z,6.63
2023-03-12T12:01:32.440Z,5.95
2023-03-12T12:04:58.794Z,5.65
2023-03-12T12:08:40.914Z,7.03
2023-03-12T12:12:03.515Z,6.13
2023-03-12T12:15:34.586Z,5.25
2023-03-12T12:19:18.342Z,5.97
2023-03-12T12:22:41.887Z,6.13
2023-03-12T12:25:58.946Z,6.70
2023-03-12T12:29:18.630Z,4.57
2023-03-12T12:32:59.041Z,5.78
2023-03-12T12:36:01.384Z,5.38
2023-03-12T12:39:11.949Z,5.47
2023-03-12T12:42:23.049Z,5.82
2023-03-12T12:45:29.063Z,6.43
2023-03-12T12:48:48.611Z,6.88
2023-03-12T12:52:01.717Z,5.15
2023-03-12T12:55:20.112Z,6.38
2023-03-12T12:58:30.954Z,5.03
2023-03-12T13:01:35.428Z,4.80
2023-03-12T13:04:39.326Z,5.43
2023-03-12T13:07:40.988Z,5.82
2023-03-12T13:10:53.010Z,5.60
2023-03-12T13:14:04.626Z,7.57
2023-03-12T13:17:27.877Z,4.00
2023-03-12T13:20:33.537Z,4.53
2023-03-12T13:23:59.759Z,5.57
2023-03-12T13:27:17.554Z,5.75
2023-03-12T13:30:46.640Z,7.78
2023-03-12T13:33:50.973Z,5.68
2023-03-12T13:36:59.420Z,6.13
2023-03-12T13:40:02.218Z,7.32
2023-03-12T13:43:10.007Z,6.60
2023-03-12T13:46:14.859Z,7.38
2023-03-12T13:49:18.791Z,6.43
2023-03-12T13:52:27.093Z,6.00
2023-03-12T13:55:31.538Z,6.45
2023-03-12T13:58:41.685Z,6.60
2023-03-12T14:01:48.730Z,7.38
2023-03-12T14:04:50.861Z,6.22
2023-03-12T14:08:04.356Z,6.78
2023-03-12T14:11:40.265Z,6.22
2023-03-12T14:14:50.657Z,5.28
2023-03-12T14:18:03.056Z,6.03
2023-03-12T14:21:10.088Z,5.78
2023-03-12T14:24:47.927Z,5.00
2023-03-12T14:27:49.883Z,4.70
2023-03-12T14:31:02.278Z,6.30
2023-03-12T14:34:20.472Z,6.60
2023-03-12T14:37:28.256Z,7.43
2023-03-12T14:40:38.345Z,6.60
2023-03-12T14:43:42.083Z,6.00
2023-03-12T14:46:56.084Z,5.88
2023-03-12T14:49:58.362Z,6.82
2023-03-12T14:53:20.197Z,5.55
2023-03-12T14:56:29.506Z,6.65
2023-03-12T14:59:35.044Z,8.05
2023-03-12T15:02:37.798Z,6.80
2023-03-12T15:05:48.037Z,6.00
2023-03-12T15:08:49.929Z,8.45
2023-03-12T15:11:58.076Z,6.63
2023-03-12T15:15:17.812Z,5.85
2023-03-12T15:18:25.819Z,5.35
2023-03-12T15:21:27.538Z,5.45
2023-03-12T15:24:34.458Z,7.18
2023-03-12T15:27:36.062Z,5.75
2023-03-12T15:30:39.256Z,5.80
2023-03-12T15:33:43.231Z,6.55
2023-03-12T15:36:49.764Z,7.53
2023-03-12T15:39:53.269Z,6.20
2023-03-12T15:42:59.173Z,5.85
2023-03-12T15:46:03.486Z,7.03
2023-03-12T15:49:05.197Z,7.68
2023-03-12T15:52:27.113Z,6.43
2023-03-12T15:55:31.824Z,5.60
2023-03-12T15:58:41.847Z,7.93
2023-03-12T16:01:47.804Z,7.50
2023-03-12T16:04:49.387Z,8.55
2023-03-12T16:07:51.098Z,6.68
2023-03-12T16:10:53.250Z,8.15
2023-03-12T16:14:13.549Z,6.00
2023-03-12T16:17:19.292Z,9.20
2023-03-12T16:20:21.034Z,7.80
2023-03-12T16:23:22.801Z,8.38
2023-03-12T16:26:24.420Z,8.55
2023-03-12T16:29:34.503Z,7.90
2023-03-12T16:32:36.117Z,10.80
2023-03-12T16:35:37.939Z,15.43
2023-03-12T16:38:39.592Z,9.27
2023-03-12T16:41:42.186Z,8.60
2023-03-12T16:44:46.313Z,8.48
2023-03-12T16:47:54.708Z,10.40
2023-03-12T16:50:58.869Z,10.38
2023-03-12T16:54:09.769Z,14.18
2023-03-12T16:57:32.980Z,13.00
2023-03-12T17:00:35.380Z,8.18
2023-03-12T17:03:39.719Z,7.47
2023-03-12T17:06:41.554Z,11.23
2023-03-12T17:09:43.182Z,9.85
2023-03-12T17:12:46.870Z,7.95
2023-03-12T17:15:50.227Z,7.88
2023-03-12T17:18:51.919Z,7.20
2023-03-12T17:21:53.694Z,9.52
2023-03-12T17:24:55.247Z,7.47
2023-03-12T17:27:57.475Z,7.93
2023-03-12T17:30:59.101Z,8.85
2023-03-12T17:34:03.846Z,8.48
2023-03-12T17:37:05.488Z,7.80
2023-03-12T17:40:09.446Z,7.82
2023-03-12T17:43:11.126Z,6.85
2023-03-12T17:46:12.839Z,8.88
2023-03-12T17:49:14.487Z,9.43
2023-03-12T17:52:16.152Z,6.60
2023-03-12T17:55:17.785Z,9.77
2023-03-12T17:58:19.406Z,11.10
2023-03-12T18:01:20.981Z,9.70
2023-03-12T18:04:22.635Z,9.80
2023-03-12T18:07:24.402Z,7.80
2023-03-12T18:10:26.013Z,7.35
2023-03-12T18:13:27.579Z,7.05
2023-03-12T18:16:29.396Z,8.55
2023-03-12T18:19:31.033Z,8.10
2023-03-12T18:22:32.671Z,6.72
2023-03-12T18:25:34.280Z,7.18
2023-03-12T18:28:35.933Z,6.97
2023-03-12T18:31:37.728Z,8.05
2023-03-12T18:34:42.340Z,9.25
2023-03-12T18:37:44.886Z,7.35
2023-03-12T18:40:46.503Z,8.43
2023-03-12T18:43:48.128Z,11.15
2023-03-12T18:46:51.773Z,12.43
2023-03-12T18:49:55.154Z,7.18
2023-03-12T18:52:56.790Z,12.20
2023-03-12T18:55:59.150Z,7.85
2023-03-12T18:59:00.780Z,10.27
2023-03-12T19:02:02.389Z,7.20
2023-03-12T19:05:04.261Z,8.30
2023-03-12T19:08:06.071Z,8.18
2023-03-12T19:11:13.356Z,6.75
2023-03-12T19:14:15.165Z,7.10
2023-03-12T19:17:16.954Z,8.10
2023-03-12T19:20:18.683Z,8.13
2023-03-12T19:23:20.627Z,10.35
2023-03-12T19:26:22.641Z,7.53
2023-03-12T19:29:24.360Z,8.75
2023-03-12T19:32:33.284Z,12.13
2023-03-12T19:35:43.850Z,8.07
2023-03-12T19:38:45.462Z,6.35
2023-03-12T19:41:47.057Z,7.82
2023-03-12T19:44:51.737Z,10.50
2023-03-12T19:47:53.423Z,7.40
2023-03-12T19:50:55.983Z,10.00
2023-03-12T19:53:57.585Z,7.05
2023-03-12T19:56:59.282Z,9.30
2023-03-12T20:00:00.943Z,8.30
2023-03-12T20:03:02.824Z,8.02
2023-03-12T20:06:08.037Z,7.68
2023-03-12T20:09:09.865Z,7.85
2023-03-12T20:12:11.544Z,9.18
2023-03-12T20:15:13.209Z,8.93
2023-03-12T20:18:15.537Z,9.50
2023-03-12T20:21:17.129Z,8.65
2023-03-12T20:24:18.757Z,16.15
2023-03-12T20:27:21.168Z,10.10
2023-03-12T20:30:22.800Z,9.88
2023-03-12T20:33:24.470Z,8.70
2023-03-12T20:36:26.217Z,6.53
2023-03-12T20:39:27.825Z,10.93
2023-03-12T20:42:29.439Z,7.05
2023-03-12T20:45:34.537Z,9.02
2023-03-12T20:48:36.175Z,10.15
2023-03-12T20:51:37.780Z,7.00
2023-03-12T20:54:39.385Z,7.68
2023-03-12T20:57:40.954Z,8.40
2023-03-12T21:00:44.239Z,9.07
2023-03-12T21:03:45.970Z,7.90
2023-03-12T21:06:47.773Z,7.38
2023-03-12T21:09:49.856Z,7.43
2023-03-12T21:12:51.560Z,9.93
2023-03-12T21:15:54.261Z,7.75
2023-03-12T21:18:57.442Z,10.20
2023-03-12T21:21:59.286Z,6.53
2023-03-12T21:25:01.303Z,7.18
2023-03-12T21:28:04.585Z,11.40
2023-03-12T21:31:09.062Z,10.38
2023-03-12T21:34:10.744Z,11.55
2023-03-12T21:37:12.382Z,8.70
2023-03-12T21:40:14.669Z,9.68
2023-03-12T21:43:16.257Z,8.38
2023-03-12T21:46:20.395Z,6.82
2023-03-12T21:49:22.290Z,8.75
2023-03-12T21:52:23.906Z,10.00
2023-03-12T21:55:25.522Z,7.72
2023-03-12T21:58:28.933Z,8.43
2023-03-12T22:01:30.499Z,9.73
2023-03-12T22:04:32.263Z,8.93
2023-03-12T22:07:33.895Z,12.05
2023-03-12T22:10:35.466Z,9.82
2023-03-12T22:13:37.714Z,7.78
2023-03-12T22:16:39.700Z,10.48
2023-03-12T22:19:42.101Z,8.55
2023-03-12T22:22:43.918Z,7.72
2023-03-12T22:25:45.713Z,9.77
2023-03-12T22:28:50.726Z,7.00
2023-03-12T22:31:52.276Z,8.02
2023-03-12T22:34:53.863Z,7.32
2023-03-12T22:37:56.253Z,7.18
2023-03-12T22:40:57.889Z,7.78
2023-03-12T22:44:05.434Z,6.90
2023-03-12T22:47:07.367Z,7.78
2023-03-12T22:50:10.016Z,8.88
2023-03-12T22:53:11.595Z,7.70
2023-03-12T22:56:14.069Z,7.32
2023-03-12T22:59:16.458Z,8.82
2023-03-12T23:02:18.491Z,6.65
2023-03-12T23:05:20.381Z,5.80
2023-03-12T23:08:23.180Z,5.57
2023-03-12T23:11:27.977Z,7.30
2023-03-12T23:14:29.650Z,7.50
2023-03-12T23:17:31.254Z,6.32
2023-03-12T23:20:32.834Z,6.05
2023-03-12T23:23:36.013Z,5.68
2023-03-12T23:26:37.730Z,6.10
2023-03-12T23:29:39.480Z,8.70
2023-03-12T23:32:41.209Z,6.93
2023-03-12T23:35:42.975Z,7.30
2023-03-12T23:38:46.486Z,6.25
2023-03-12T23:41:48.224Z,5.25
2023-03-12T23:44:49.858Z,7.05
2023-03-12T23:47:51.646Z,6.70
2023-03-12T23:50:53.886Z,5.55
2023-03-12T23:53:57.999Z,6.35
2023-03-12T23:56:59.942Z,6.18
